sensor_id;sensor_type;location;lat;lon;timestamp;temperature;humidity
13223;DHT22;6676;45.192;5.722;2023-09-30T00:00:55;22.40;99.90
13223;DHT22;6676;45.192;5.722;2023-09-30T00:03:46;22.40;99.90
13223;DHT22;6676;45.192;5.722;2023-09-30T00:06:37;22.50;99.90
13223;DHT22;6676;45.192;5.722;2023-09-30T00:09:29;22.60;99.90
13223;DHT22;6676;45.192;5.722;2023-09-30T00:12:20;22.70;99.90
13223;DHT22;6676;45.192;5.722;2023-09-30T00:15:12;22.70;99.90
13223;DHT22;6676;45.192;5.722;2023-09-30T00:18:04;22.70;99.90
13223;DHT22;6676;45.192;5.722;2023-09-30T00:20:55;22.70;99.90
13223;DHT22;6676;45.192;5.722;2023-09-30T00:23:47;22.70;99.90
13223;DHT22;6676;45.192;5.722;2023-09-30T00:26:39;22.70;99.90
13223;DHT22;6676;45.192;5.722;2023-09-30T00:29:30;22.70;99.90
13223;DHT22;6676;45.192;5.722;2023-09-30T00:32:21;22.80;99.90
13223;DHT22;6676;45.192;5.722;2023-09-30T00:35:13;22.80;99.90
13223;DHT22;6676;45.192;5.722;2023-09-30T00:38:05;22.70;99.90
13223;DHT22;6676;45.192;5.722;2023-09-30T00:40:58;22.60;99.90
13223;DHT22;6676;45.192;5.722;2023-09-30T00:43:50;22.60;99.90
13223;DHT22;6676;45.192;5.722;2023-09-30T00:46:41;22.50;99.90
13223;DHT22;6676;45.192;5.722;2023-09-30T00:49:33;22.40;99.90
13223;DHT22;6676;45.192;5.722;2023-09-30T00:52:25;22.40;99.90
13223;DHT22;6676;45.192;5.722;2023-09-30T00:55:17;22.40;99.90
13223;DHT22;6676;45.192;5.722;2023-09-30T00:58:10;22.40;99.90
13223;DHT22;6676;45.192;5.722;2023-09-30T01:01:02;22.30;99.90
13223;DHT22;6676;45.192;5.722;2023-09-30T01:03:54;22.30;99.90
13223;DHT22;6676;45.192;5.722;2023-09-30T01:06:46;22.30;99.90
13223;DHT22;6676;45.192;5.722;2023-09-30T01:09:38;22.20;99.90
13223;DHT22;6676;45.192;5.722;2023-09-30T01:12:29;22.10;99.90
13223;DHT22;6676;45.192;5.722;2023-09-30T01:15:22;22.00;99.90
13223;DHT22;6676;45.192;5.722;2023-09-30T01:18:13;22.10;99.90
13223;DHT22;6676;45.192;5.722;2023-09-30T01:21:06;22.10;99.90
13223;DHT22;6676;45.192;5.722;2023-09-30T01:23:58;22.00;99.90
13223;DHT22;6676;45.192;5.722;2023-09-30T01:26:50;21.90;99.90
13223;DHT22;6676;45.192;5.722;2023-09-30T01:29:41;21.80;99.90
13223;DHT22;6676;45.192;5.722;2023-09-30T01:32:34;21.90;99.90
13223;DHT22;6676;45.192;5.722;2023-09-30T01:35:26;21.80;99.90
13223;DHT22;6676;45.192;5.722;2023-09-30T01:38:18;21.90;99.90
13223;DHT22;6676;45.192;5.722;2023-09-30T01:41:10;21.90;99.90
13223;DHT22;6676;45.192;5.722;2023-09-30T01:44:01;21.90;99.90
13223;DHT22;6676;45.192;5.722;2023-09-30T01:46:52;21.80;99.90
13223;DHT22;6676;45.192;5.722;2023-09-30T01:49:44;21.80;99.90
13223;DHT22;6676;45.192;5.722;2023-09-30T01:52:37;21.80;99.90
13223;DHT22;6676;45.192;5.722;2023-09-30T01:55:28;21.80;99.90
13223;DHT22;6676;45.192;5.722;2023-09-30T01:58:23;21.80;99.90
13223;DHT22;6676;45.192;5.722;2023-09-30T02:01:16;21.80;99.90
13223;DHT22;6676;45.192;5.722;2023-09-30T02:04:07;21.60;99.90
13223;DHT22;6676;45.192;5.722;2023-09-30T02:06:59;21.60;99.90
13223;DHT22;6676;45.192;5.722;2023-09-30T02:09:51;21.60;99.90
13223;DHT22;6676;45.192;5.722;2023-09-30T02:12:42;21.60;99.90
13223;DHT22;6676;45.192;5.722;2023-09-30T02:15:34;21.60;99.90
13223;DHT22;6676;45.192;5.722;2023-09-30T02:18:25;21.70;99.90
13223;DHT22;6676;45.192;5.722;2023-09-30T02:21:17;21.70;99.90
13223;DHT22;6676;45.192;5.722;2023-09-30T02:24:09;21.70;99.90
13223;DHT22;6676;45.192;5.722;2023-09-30T02:27:02;21.70;99.90
13223;DHT22;6676;45.192;5.722;2023-09-30T02:29:53;21.70;99.90
13223;DHT22;6676;45.192;5.722;2023-09-30T02:32:45;21.60;99.90
13223;DHT22;6676;45.192;5.722;2023-09-30T02:35:37;21.50;99.90
13223;DHT22;6676;45.192;5.722;2023-09-30T02:38:29;21.30;99.90
13223;DHT22;6676;45.192;5.722;2023-09-30T02:41:22;21.20;99.90
13223;DHT22;6676;45.192;5.722;2023-09-30T02:44:13;21.10;99.90
13223;DHT22;6676;45.192;5.722;2023-09-30T02:47:05;21.00;99.90
13223;DHT22;6676;45.192;5.722;2023-09-30T02:49:58;21.00;99.90
13223;DHT22;6676;45.192;5.722;2023-09-30T02:52:49;20.80;99.90
13223;DHT22;6676;45.192;5.722;2023-09-30T02:55:42;20.80;99.90
13223;DHT22;6676;45.192;5.722;2023-09-30T02:58:33;20.70;99.90
13223;DHT22;6676;45.192;5.722;2023-09-30T03:01:24;20.70;99.90
13223;DHT22;6676;45.192;5.722;2023-09-30T03:04:17;20.60;99.90
13223;DHT22;6676;45.192;5.722;2023-09-30T03:07:09;20.60;99.90
13223;DHT22;6676;45.192;5.722;2023-09-30T03:10:02;20.50;99.90
13223;DHT22;6676;45.192;5.722;2023-09-30T03:12:55;20.40;99.90
13223;DHT22;6676;45.192;5.722;2023-09-30T03:15:48;20.30;99.90
13223;DHT22;6676;45.192;5.722;2023-09-30T03:18:40;20.40;99.90
13223;DHT22;6676;45.192;5.722;2023-09-30T03:21:34;20.30;99.90
13223;DHT22;6676;45.192;5.722;2023-09-30T03:24:26;20.20;99.90
13223;DHT22;6676;45.192;5.722;2023-09-30T03:27:17;20.20;99.90
13223;DHT22;6676;45.192;5.722;2023-09-30T03:30:11;20.10;99.90
13223;DHT22;6676;45.192;5.722;2023-09-30T03:33:04;20.10;99.90
13223;DHT22;6676;45.192;5.722;2023-09-30T03:35:55;20.10;99.90
13223;DHT22;6676;45.192;5.722;2023-09-30T03:38:48;20.10;99.90
13223;DHT22;6676;45.192;5.722;2023-09-30T03:41:40;20.10;99.90
13223;DHT22;6676;45.192;5.722;2023-09-30T03:44:31;20.10;99.90
13223;DHT22;6676;45.192;5.722;2023-09-30T03:47:23;20.00;99.90
13223;DHT22;6676;45.192;5.722;2023-09-30T03:50:14;20.00;99.90
13223;DHT22;6676;45.192;5.722;2023-09-30T03:53:06;19.90;99.90
13223;DHT22;6676;45.192;5.722;2023-09-30T03:55:58;19.80;99.90
13223;DHT22;6676;45.192;5.722;2023-09-30T03:58:49;19.80;99.90
13223;DHT22;6676;45.192;5.722;2023-09-30T04:01:41;19.70;99.90
13223;DHT22;6676;45.192;5.722;2023-09-30T04:04:34;19.60;99.90
13223;DHT22;6676;45.192;5.722;2023-09-30T04:07:26;19.60;99.90
13223;DHT22;6676;45.192;5.722;2023-09-30T04:10:18;19.60;99.90
13223;DHT22;6676;45.192;5.722;2023-09-30T04:13:11;19.50;99.90
13223;DHT22;6676;45.192;5.722;2023-09-30T04:16:03;19.30;99.90
13223;DHT22;6676;45.192;5.722;2023-09-30T04:18:54;19.20;99.90
13223;DHT22;6676;45.192;5.722;2023-09-30T04:21:46;19.20;99.90
13223;DHT22;6676;45.192;5.722;2023-09-30T04:24:37;19.20;99.90
13223;DHT22;6676;45.192;5.722;2023-09-30T04:27:29;19.20;99.90
13223;DHT22;6676;45.192;5.722;2023-09-30T04:30:20;19.20;99.90
13223;DHT22;6676;45.192;5.722;2023-09-30T04:33:13;19.30;99.90
13223;DHT22;6676;45.192;5.722;2023-09-30T04:36:05;19.20;99.90
13223;DHT22;6676;45.192;5.722;2023-09-30T04:38:58;19.20;99.90
13223;DHT22;6676;45.192;5.722;2023-09-30T04:41:51;19.20;99.90
13223;DHT22;6676;45.192;5.722;2023-09-30T04:44:42;19.20;99.90
13223;DHT22;6676;45.192;5.722;2023-09-30T04:47:33;19.20;99.90
13223;DHT22;6676;45.192;5.722;2023-09-30T04:50:25;19.20;99.90
13223;DHT22;6676;45.192;5.722;2023-09-30T04:53:16;19.30;99.90
13223;DHT22;6676;45.192;5.722;2023-09-30T04:56:08;19.30;99.90
13223;DHT22;6676;45.192;5.722;2023-09-30T04:59:00;19.30;99.90
13223;DHT22;6676;45.192;5.722;2023-09-30T05:01:52;19.30;99.90
13223;DHT22;6676;45.192;5.722;2023-09-30T05:04:44;19.30;99.90
13223;DHT22;6676;45.192;5.722;2023-09-30T05:07:35;19.30;99.90
13223;DHT22;6676;45.192;5.722;2023-09-30T05:10:27;19.30;99.90
13223;DHT22;6676;45.192;5.722;2023-09-30T05:13:18;19.30;99.90
13223;DHT22;6676;45.192;5.722;2023-09-30T05:16:13;19.30;99.90
13223;DHT22;6676;45.192;5.722;2023-09-30T05:19:05;19.30;99.90
13223;DHT22;6676;45.192;5.722;2023-09-30T05:21:56;19.20;99.90
13223;DHT22;6676;45.192;5.722;2023-09-30T05:24:48;19.20;99.90
13223;DHT22;6676;45.192;5.722;2023-09-30T05:27:40;19.20;99.90
13223;DHT22;6676;45.192;5.722;2023-09-30T05:30:32;19.20;99.90
13223;DHT22;6676;45.192;5.722;2023-09-30T05:33:24;19.20;99.90
13223;DHT22;6676;45.192;5.722;2023-09-30T05:36:15;19.20;99.90
13223;DHT22;6676;45.192;5.722;2023-09-30T05:39:07;19.20;99.90
13223;DHT22;6676;45.192;5.722;2023-09-30T05:42:00;19.10;99.90
13223;DHT22;6676;45.192;5.722;2023-09-30T05:44:51;19.00;99.90
13223;DHT22;6676;45.192;5.722;2023-09-30T05:47:43;18.90;99.90
13223;DHT22;6676;45.192;5.722;2023-09-30T05:50:37;18.90;99.90
13223;DHT22;6676;45.192;5.722;2023-09-30T05:53:29;18.90;99.90
13223;DHT22;6676;45.192;5.722;2023-09-30T05:56:22;19.00;99.90
13223;DHT22;6676;45.192;5.722;2023-09-30T05:59:13;18.90;99.90
13223;DHT22;6676;45.192;5.722;2023-09-30T06:02:04;19.00;99.90
13223;DHT22;6676;45.192;5.722;2023-09-30T06:04:56;19.10;99.90
13223;DHT22;6676;45.192;5.722;2023-09-30T06:07:48;19.20;99.90
13223;DHT22;6676;45.192;5.722;2023-09-30T06:10:41;19.20;99.90
13223;DHT22;6676;45.192;5.722;2023-09-30T06:13:34;19.30;99.90
13223;DHT22;6676;45.192;5.722;2023-09-30T06:16:26;19.30;99.90
13223;DHT22;6676;45.192;5.722;2023-09-30T06:19:17;19.40;99.90
13223;DHT22;6676;45.192;5.722;2023-09-30T06:22:11;19.40;99.90
13223;DHT22;6676;45.192;5.722;2023-09-30T06:25:03;19.50;99.90
13223;DHT22;6676;45.192;5.722;2023-09-30T06:27:55;19.60;99.90
13223;DHT22;6676;45.192;5.722;2023-09-30T06:30:46;19.60;99.90
13223;DHT22;6676;45.192;5.722;2023-09-30T06:33:39;19.60;99.90
13223;DHT22;6676;45.192;5.722;2023-09-30T06:36:32;19.70;99.90
13223;DHT22;6676;45.192;5.722;2023-09-30T06:39:24;19.80;99.90
13223;DHT22;6676;45.192;5.722;2023-09-30T06:42:15;19.70;99.90
13223;DHT22;6676;45.192;5.722;2023-09-30T06:45:09;19.80;99.90
13223;DHT22;6676;45.192;5.722;2023-09-30T06:48:00;19.80;99.90
13223;DHT22;6676;45.192;5.722;2023-09-30T06:50:52;19.80;99.90
13223;DHT22;6676;45.192;5.722;2023-09-30T06:53:44;19.70;99.90
13223;DHT22;6676;45.192;5.722;2023-09-30T06:56:36;19.80;99.90
13223;DHT22;6676;45.192;5.722;2023-09-30T06:59:28;19.90;99.90
13223;DHT22;6676;45.192;5.722;2023-09-30T07:02:19;20.00;99.90
13223;DHT22;6676;45.192;5.722;2023-09-30T07:05:14;19.90;99.90
13223;DHT22;6676;45.192;5.722;2023-09-30T07:08:08;20.00;99.90
13223;DHT22;6676;45.192;5.722;2023-09-30T07:10:59;20.10;99.90
13223;DHT22;6676;45.192;5.722;2023-09-30T07:13:52;20.10;99.90
13223;DHT22;6676;45.192;5.722;2023-09-30T07:16:43;20.20;99.90
13223;DHT22;6676;45.192;5.722;2023-09-30T07:19:35;20.10;99.90
13223;DHT22;6676;45.192;5.722;2023-09-30T07:22:27;20.10;99.90
13223;DHT22;6676;45.192;5.722;2023-09-30T07:25:20;19.90;99.90
13223;DHT22;6676;45.192;5.722;2023-09-30T07:28:11;19.90;99.90
13223;DHT22;6676;45.192;5.722;2023-09-30T07:31:03;20.10;99.90
13223;DHT22;6676;45.192;5.722;2023-09-30T07:33:55;20.20;99.90
13223;DHT22;6676;45.192;5.722;2023-09-30T07:36:47;20.20;99.90
13223;DHT22;6676;45.192;5.722;2023-09-30T07:39:39;20.20;99.90
13223;DHT22;6676;45.192;5.722;2023-09-30T07:42:31;20.20;99.90
13223;DHT22;6676;45.192;5.722;2023-09-30T07:45:25;20.30;99.90
13223;DHT22;6676;45.192;5.722;2023-09-30T07:48:18;20.40;99.90
13223;DHT22;6676;45.192;5.722;2023-09-30T07:51:09;20.50;99.90
13223;DHT22;6676;45.192;5.722;2023-09-30T07:54:03;20.60;99.90
13223;DHT22;6676;45.192;5.722;2023-09-30T07:56:56;20.50;99.90
13223;DHT22;6676;45.192;5.722;2023-09-30T07:59:48;20.70;99.90
13223;DHT22;6676;45.192;5.722;2023-09-30T08:02:40;20.80;99.90
13223;DHT22;6676;45.192;5.722;2023-09-30T08:05:31;21.00;99.90
13223;DHT22;6676;45.192;5.722;2023-09-30T08:08:23;21.10;99.90
13223;DHT22;6676;45.192;5.722;2023-09-30T08:11:15;21.20;99.90
13223;DHT22;6676;45.192;5.722;2023-09-30T08:14:08;21.20;99.90
13223;DHT22;6676;45.192;5.722;2023-09-30T08:16:59;21.30;99.90
13223;DHT22;6676;45.192;5.722;2023-09-30T08:19:52;21.20;99.90
13223;DHT22;6676;45.192;5.722;2023-09-30T08:22:44;21.20;99.90
13223;DHT22;6676;45.192;5.722;2023-09-30T08:25:35;21.20;99.90
13223;DHT22;6676;45.192;5.722;2023-09-30T08:28:27;21.30;99.90
13223;DHT22;6676;45.192;5.722;2023-09-30T08:31:18;21.30;99.90
13223;DHT22;6676;45.192;5.722;2023-09-30T08:34:11;21.30;99.90
13223;DHT22;6676;45.192;5.722;2023-09-30T08:37:04;21.40;99.90
13223;DHT22;6676;45.192;5.722;2023-09-30T08:39:56;21.50;99.90
13223;DHT22;6676;45.192;5.722;2023-09-30T08:42:49;21.50;99.90
13223;DHT22;6676;45.192;5.722;2023-09-30T08:48:24;21.60;99.90
13223;DHT22;6676;45.192;5.722;2023-09-30T08:51:16;21.50;99.90
13223;DHT22;6676;45.192;5.722;2023-09-30T08:54:08;21.50;99.90
13223;DHT22;6676;45.192;5.722;2023-09-30T08:57:01;21.50;99.90
13223;DHT22;6676;45.192;5.722;2023-09-30T08:59:54;21.60;99.90
13223;DHT22;6676;45.192;5.722;2023-09-30T09:02:46;21.60;99.90
13223;DHT22;6676;45.192;5.722;2023-09-30T09:05:38;21.60;99.90
13223;DHT22;6676;45.192;5.722;2023-09-30T09:08:31;21.60;99.90
13223;DHT22;6676;45.192;5.722;2023-09-30T09:11:24;21.60;99.90
13223;DHT22;6676;45.192;5.722;2023-09-30T09:14:16;21.50;99.90
13223;DHT22;6676;45.192;5.722;2023-09-30T09:17:10;21.40;99.90
13223;DHT22;6676;45.192;5.722;2023-09-30T09:20:02;21.40;99.90
13223;DHT22;6676;45.192;5.722;2023-09-30T09:22:55;21.50;99.90
13223;DHT22;6676;45.192;5.722;2023-09-30T09:28:35;21.50;99.90
13223;DHT22;6676;45.192;5.722;2023-09-30T09:31:29;21.60;99.90
13223;DHT22;6676;45.192;5.722;2023-09-30T09:34:21;21.60;99.90
13223;DHT22;6676;45.192;5.722;2023-09-30T09:37:15;21.70;99.90
13223;DHT22;6676;45.192;5.722;2023-09-30T09:40:08;21.80;99.90
13223;DHT22;6676;45.192;5.722;2023-09-30T09:43:02;21.90;99.90
13223;DHT22;6676;45.192;5.722;2023-09-30T09:45:57;22.00;99.90
13223;DHT22;6676;45.192;5.722;2023-09-30T09:48:50;22.00;99.90
13223;DHT22;6676;45.192;5.722;2023-09-30T09:51:42;22.10;99.90
13223;DHT22;6676;45.192;5.722;2023-09-30T09:54:35;22.20;99.90
13223;DHT22;6676;45.192;5.722;2023-09-30T09:57:28;22.30;99.90
13223;DHT22;6676;45.192;5.722;2023-09-30T10:00:24;22.40;99.90
13223;DHT22;6676;45.192;5.722;2023-09-30T10:03:16;22.40;99.90
13223;DHT22;6676;45.192;5.722;2023-09-30T10:06:08;22.50;99.90
13223;DHT22;6676;45.192;5.722;2023-09-30T10:09:00;22.70;99.90
13223;DHT22;6676;45.192;5.722;2023-09-30T10:11:59;22.80;99.90
13223;DHT22;6676;45.192;5.722;2023-09-30T10:14:52;22.80;99.90
13223;DHT22;6676;45.192;5.722;2023-09-30T10:18:04;22.90;99.90
13223;DHT22;6676;45.192;5.722;2023-09-30T10:21:07;23.00;99.90
13223;DHT22;6676;45.192;5.722;2023-09-30T10:24:00;23.10;99.90
13223;DHT22;6676;45.192;5.722;2023-09-30T10:30:23;23.20;99.90
13223;DHT22;6676;45.192;5.722;2023-09-30T10:33:15;23.20;99.90
13223;DHT22;6676;45.192;5.722;2023-09-30T10:36:07;23.20;99.90
13223;DHT22;6676;45.192;5.722;2023-09-30T10:39:02;23.20;99.90
13223;DHT22;6676;45.192;5.722;2023-09-30T10:41:53;23.30;99.90
13223;DHT22;6676;45.192;5.722;2023-09-30T10:44:45;23.20;99.90
13223;DHT22;6676;45.192;5.722;2023-09-30T10:47:37;23.30;99.90
13223;DHT22;6676;45.192;5.722;2023-09-30T10:50:50;23.20;99.90
13223;DHT22;6676;45.192;5.722;2023-09-30T10:53:46;23.20;99.90
13223;DHT22;6676;45.192;5.722;2023-09-30T10:56:38;23.40;99.90
13223;DHT22;6676;45.192;5.722;2023-09-30T10:59:31;23.40;99.90
13223;DHT22;6676;45.192;5.722;2023-09-30T11:02:24;23.60;99.90
13223;DHT22;6676;45.192;5.722;2023-09-30T11:05:16;23.70;99.90
13223;DHT22;6676;45.192;5.722;2023-09-30T11:08:09;23.70;99.90
13223;DHT22;6676;45.192;5.722;2023-09-30T11:11:00;23.80;99.90
13223;DHT22;6676;45.192;5.722;2023-09-30T11:13:52;23.80;99.90
13223;DHT22;6676;45.192;5.722;2023-09-30T11:16:46;24.00;99.90
13223;DHT22;6676;45.192;5.722;2023-09-30T11:19:46;24.00;99.90
13223;DHT22;6676;45.192;5.722;2023-09-30T11:22:38;24.10;99.90
13223;DHT22;6676;45.192;5.722;2023-09-30T11:25:35;24.10;99.90
13223;DHT22;6676;45.192;5.722;2023-09-30T11:28:35;24.10;99.90
13223;DHT22;6676;45.192;5.722;2023-09-30T11:31:29;24.00;99.90
13223;DHT22;6676;45.192;5.722;2023-09-30T11:34:31;24.00;99.90
13223;DHT22;6676;45.192;5.722;2023-09-30T11:37:23;24.00;99.90
13223;DHT22;6676;45.192;5.722;2023-09-30T11:40:15;24.00;99.90
13223;DHT22;6676;45.192;5.722;2023-09-30T11:43:08;24.10;99.90
13223;DHT22;6676;45.192;5.722;2023-09-30T11:46:07;24.20;99.90
13223;DHT22;6676;45.192;5.722;2023-09-30T11:49:03;24.30;99.90
13223;DHT22;6676;45.192;5.722;2023-09-30T11:51:58;24.40;99.90
13223;DHT22;6676;45.192;5.722;2023-09-30T11:54:53;24.50;99.90
13223;DHT22;6676;45.192;5.722;2023-09-30T11:57:46;24.50;99.90
13223;DHT22;6676;45.192;5.722;2023-09-30T12:00:41;24.40;99.90
13223;DHT22;6676;45.192;5.722;2023-09-30T12:03:32;24.30;99.90
13223;DHT22;6676;45.192;5.722;2023-09-30T12:06:26;24.30;99.90
13223;DHT22;6676;45.192;5.722;2023-09-30T12:09:18;24.40;99.90
13223;DHT22;6676;45.192;5.722;2023-09-30T12:12:14;24.30;99.90
13223;DHT22;6676;45.192;5.722;2023-09-30T12:15:08;24.20;99.90
13223;DHT22;6676;45.192;5.722;2023-09-30T12:18:00;24.20;99.90
13223;DHT22;6676;45.192;5.722;2023-09-30T12:20:53;24.30;99.90
13223;DHT22;6676;45.192;5.722;2023-09-30T12:23:44;24.30;99.90
13223;DHT22;6676;45.192;5.722;2023-09-30T12:26:35;24.30;99.90
13223;DHT22;6676;45.192;5.722;2023-09-30T12:29:28;24.40;99.90
13223;DHT22;6676;45.192;5.722;2023-09-30T12:32:20;24.40;99.90
13223;DHT22;6676;45.192;5.722;2023-09-30T12:35:13;24.30;99.90
13223;DHT22;6676;45.192;5.722;2023-09-30T12:38:04;24.40;99.90
13223;DHT22;6676;45.192;5.722;2023-09-30T12:40:56;24.50;99.90
13223;DHT22;6676;45.192;5.722;2023-09-30T12:43:48;24.50;99.90
13223;DHT22;6676;45.192;5.722;2023-09-30T12:46:39;24.50;99.90
13223;DHT22;6676;45.192;5.722;2023-09-30T12:49:30;24.50;99.90
13223;DHT22;6676;45.192;5.722;2023-09-30T12:52:22;24.50;99.90
13223;DHT22;6676;45.192;5.722;2023-09-30T12:55:14;24.50;99.90
13223;DHT22;6676;45.192;5.722;2023-09-30T12:58:05;24.50;99.90
13223;DHT22;6676;45.192;5.722;2023-09-30T13:00:58;24.60;99.90
13223;DHT22;6676;45.192;5.722;2023-09-30T13:03:51;24.60;99.90
13223;DHT22;6676;45.192;5.722;2023-09-30T13:06:43;24.70;99.90
13223;DHT22;6676;45.192;5.722;2023-09-30T13:09:36;24.80;99.90
13223;DHT22;6676;45.192;5.722;2023-09-30T13:12:28;24.80;99.90
13223;DHT22;6676;45.192;5.722;2023-09-30T13:15:20;24.80;99.90
13223;DHT22;6676;45.192;5.722;2023-09-30T13:18:14;24.80;99.90
13223;DHT22;6676;45.192;5.722;2023-09-30T13:21:06;24.70;99.90
13223;DHT22;6676;45.192;5.722;2023-09-30T13:23:59;24.70;99.90
13223;DHT22;6676;45.192;5.722;2023-09-30T13:26:51;24.70;99.90
13223;DHT22;6676;45.192;5.722;2023-09-30T13:29:43;24.70;99.90
13223;DHT22;6676;45.192;5.722;2023-09-30T13:32:35;24.80;99.90
13223;DHT22;6676;45.192;5.722;2023-09-30T13:35:27;24.70;99.90
13223;DHT22;6676;45.192;5.722;2023-09-30T13:38:21;24.70;99.90
13223;DHT22;6676;45.192;5.722;2023-09-30T13:41:20;24.70;99.90
13223;DHT22;6676;45.192;5.722;2023-09-30T13:44:14;24.70;99.90
13223;DHT22;6676;45.192;5.722;2023-09-30T13:47:12;24.60;99.90
13223;DHT22;6676;45.192;5.722;2023-09-30T13:50:11;24.80;99.90
13223;DHT22;6676;45.192;5.722;2023-09-30T13:53:04;24.80;99.90
13223;DHT22;6676;45.192;5.722;2023-09-30T13:56:02;24.90;99.90
13223;DHT22;6676;45.192;5.722;2023-09-30T13:58:57;24.80;99.90
13223;DHT22;6676;45.192;5.722;2023-09-30T14:01:51;24.80;99.90
13223;DHT22;6676;45.192;5.722;2023-09-30T14:04:46;24.80;99.90
13223;DHT22;6676;45.192;5.722;2023-09-30T14:07:39;24.90;99.90
13223;DHT22;6676;45.192;5.722;2023-09-30T14:10:32;25.20;99.90
13223;DHT22;6676;45.192;5.722;2023-09-30T14:13:27;25.50;99.90
13223;DHT22;6676;45.192;5.722;2023-09-30T14:16:22;25.80;99.90
13223;DHT22;6676;45.192;5.722;2023-09-30T14:19:16;26.10;99.90
13223;DHT22;6676;45.192;5.722;2023-09-30T14:22:09;26.20;99.90
13223;DHT22;6676;45.192;5.722;2023-09-30T14:25:05;26.00;99.90
13223;DHT22;6676;45.192;5.722;2023-09-30T14:28:00;25.90;99.90
13223;DHT22;6676;45.192;5.722;2023-09-30T14:30:53;26.10;99.90
13223;DHT22;6676;45.192;5.722;2023-09-30T14:33:49;26.40;99.90
13223;DHT22;6676;45.192;5.722;2023-09-30T14:36:50;26.60;99.90
13223;DHT22;6676;45.192;5.722;2023-09-30T14:39:45;26.50;99.90
13223;DHT22;6676;45.192;5.722;2023-09-30T14:42:40;25.90;99.90
13223;DHT22;6676;45.192;5.722;2023-09-30T14:45:36;25.40;99.90
13223;DHT22;6676;45.192;5.722;2023-09-30T14:48:29;25.30;99.90
13223;DHT22;6676;45.192;5.722;2023-09-30T14:51:24;25.10;99.90
13223;DHT22;6676;45.192;5.722;2023-09-30T14:54:18;25.00;99.90
13223;DHT22;6676;45.192;5.722;2023-09-30T14:57:11;25.20;99.90
13223;DHT22;6676;45.192;5.722;2023-09-30T15:00:07;25.50;99.90
13223;DHT22;6676;45.192;5.722;2023-09-30T15:03:01;25.70;99.90
13223;DHT22;6676;45.192;5.722;2023-09-30T15:06:00;25.90;99.90
13223;DHT22;6676;45.192;5.722;2023-09-30T15:08:55;26.30;99.90
13223;DHT22;6676;45.192;5.722;2023-09-30T15:11:50;26.50;99.90
13223;DHT22;6676;45.192;5.722;2023-09-30T15:14:45;26.60;99.90
13223;DHT22;6676;45.192;5.722;2023-09-30T15:17:38;26.10;99.90
13223;DHT22;6676;45.192;5.722;2023-09-30T15:20:39;26.10;99.90
13223;DHT22;6676;45.192;5.722;2023-09-30T15:23:34;25.90;99.90
13223;DHT22;6676;45.192;5.722;2023-09-30T15:26:27;25.60;99.90
13223;DHT22;6676;45.192;5.722;2023-09-30T15:29:23;25.40;99.90
13223;DHT22;6676;45.192;5.722;2023-09-30T15:32:18;25.30;99.90
13223;DHT22;6676;45.192;5.722;2023-09-30T15:35:11;25.20;99.90
13223;DHT22;6676;45.192;5.722;2023-09-30T15:38:03;25.10;99.90
13223;DHT22;6676;45.192;5.722;2023-09-30T15:40:58;25.30;99.90
13223;DHT22;6676;45.192;5.722;2023-09-30T15:43:53;25.20;99.90
13223;DHT22;6676;45.192;5.722;2023-09-30T15:46:48;25.40;99.90
13223;DHT22;6676;45.192;5.722;2023-09-30T15:49:41;25.80;99.90
13223;DHT22;6676;45.192;5.722;2023-09-30T15:52:34;25.60;99.90
13223;DHT22;6676;45.192;5.722;2023-09-30T15:55:26;25.20;99.90
13223;DHT22;6676;45.192;5.722;2023-09-30T15:58:21;25.00;99.90
13223;DHT22;6676;45.192;5.722;2023-09-30T16:01:15;24.90;99.90
13223;DHT22;6676;45.192;5.722;2023-09-30T16:04:11;24.90;99.90
13223;DHT22;6676;45.192;5.722;2023-09-30T16:07:09;25.10;99.90
13223;DHT22;6676;45.192;5.722;2023-09-30T16:10:04;25.10;99.90
13223;DHT22;6676;45.192;5.722;2023-09-30T16:12:58;25.40;99.90
13223;DHT22;6676;45.192;5.722;2023-09-30T16:15:53;25.50;99.90
13223;DHT22;6676;45.192;5.722;2023-09-30T16:18:48;25.30;99.90
13223;DHT22;6676;45.192;5.722;2023-09-30T16:21:45;25.10;99.90
13223;DHT22;6676;45.192;5.722;2023-09-30T16:24:38;24.90;99.90
13223;DHT22;6676;45.192;5.722;2023-09-30T16:27:35;24.70;99.90
13223;DHT22;6676;45.192;5.722;2023-09-30T16:30:28;24.50;99.90
13223;DHT22;6676;45.192;5.722;2023-09-30T16:33:22;24.10;99.90
13223;DHT22;6676;45.192;5.722;2023-09-30T16:36:19;23.80;99.90
13223;DHT22;6676;45.192;5.722;2023-09-30T16:39:14;23.60;99.90
13223;DHT22;6676;45.192;5.722;2023-09-30T16:42:10;23.50;99.90
13223;DHT22;6676;45.192;5.722;2023-09-30T16:45:06;23.40;99.90
13223;DHT22;6676;45.192;5.722;2023-09-30T16:48:01;23.30;99.90
13223;DHT22;6676;45.192;5.722;2023-09-30T16:50:55;23.30;99.90
13223;DHT22;6676;45.192;5.722;2023-09-30T16:53:48;23.20;99.90
13223;DHT22;6676;45.192;5.722;2023-09-30T16:56:42;23.00;99.90
13223;DHT22;6676;45.192;5.722;2023-09-30T16:59:35;23.00;99.90
13223;DHT22;6676;45.192;5.722;2023-09-30T17:02:28;23.00;99.90
13223;DHT22;6676;45.192;5.722;2023-09-30T17:05:25;22.80;99.90
13223;DHT22;6676;45.192;5.722;2023-09-30T17:08:19;22.70;99.90
13223;DHT22;6676;45.192;5.722;2023-09-30T17:11:18;22.70;99.90
13223;DHT22;6676;45.192;5.722;2023-09-30T17:14:10;22.60;99.90
13223;DHT22;6676;45.192;5.722;2023-09-30T17:17:04;22.50;99.90
13223;DHT22;6676;45.192;5.722;2023-09-30T17:19:58;22.50;99.90
13223;DHT22;6676;45.192;5.722;2023-09-30T17:22:53;22.50;99.90
13223;DHT22;6676;45.192;5.722;2023-09-30T17:25:48;22.50;99.90
13223;DHT22;6676;45.192;5.722;2023-09-30T17:28:42;22.40;99.90
13223;DHT22;6676;45.192;5.722;2023-09-30T17:31:39;22.40;99.90
13223;DHT22;6676;45.192;5.722;2023-09-30T17:34:33;22.40;99.90
13223;DHT22;6676;45.192;5.722;2023-09-30T17:37:30;22.40;99.90
13223;DHT22;6676;45.192;5.722;2023-09-30T17:40:26;22.30;99.90
13223;DHT22;6676;45.192;5.722;2023-09-30T17:43:21;22.30;99.90
13223;DHT22;6676;45.192;5.722;2023-09-30T17:46:18;22.20;99.90
13223;DHT22;6676;45.192;5.722;2023-09-30T17:49:11;22.20;99.90
13223;DHT22;6676;45.192;5.722;2023-09-30T17:52:06;22.00;99.90
13223;DHT22;6676;45.192;5.722;2023-09-30T17:55:03;22.00;99.90
13223;DHT22;6676;45.192;5.722;2023-09-30T17:57:59;22.00;99.90
13223;DHT22;6676;45.192;5.722;2023-09-30T18:00:53;21.90;99.90
13223;DHT22;6676;45.192;5.722;2023-09-30T18:03:49;21.80;99.90
13223;DHT22;6676;45.192;5.722;2023-09-30T18:06:43;21.70;99.90
13223;DHT22;6676;45.192;5.722;2023-09-30T18:09:39;21.60;99.90
13223;DHT22;6676;45.192;5.722;2023-09-30T18:12:33;21.50;99.90
13223;DHT22;6676;45.192;5.722;2023-09-30T18:15:25;21.50;99.90
13223;DHT22;6676;45.192;5.722;2023-09-30T18:18:20;21.50;99.90
13223;DHT22;6676;45.192;5.722;2023-09-30T18:21:15;21.50;99.90
13223;DHT22;6676;45.192;5.722;2023-09-30T18:24:08;21.50;99.90
13223;DHT22;6676;45.192;5.722;2023-09-30T18:27:04;21.30;99.90
13223;DHT22;6676;45.192;5.722;2023-09-30T18:29:57;21.10;99.90
13223;DHT22;6676;45.192;5.722;2023-09-30T18:32:50;21.00;99.90
13223;DHT22;6676;45.192;5.722;2023-09-30T18:35:45;21.00;99.90
13223;DHT22;6676;45.192;5.722;2023-09-30T18:38:55;21.00;99.90